createdAt,value
2017-12-12T00:00:46.163Z,23.90
2017-12-12T00:03:13.623Z,23.67
2017-12-12T00:05:41.055Z,22.35
2017-12-12T00:08:08.535Z,21.35
2017-12-12T00:10:35.972Z,24.23
2017-12-12T00:13:03.410Z,23.67
2017-12-12T00:15:30.835Z,22.73
2017-12-12T00:17:58.274Z,25.50
2017-12-12T00:20:25.727Z,23.23
2017-12-12T00:22:53.175Z,24.50
2017-12-12T00:25:20.627Z,21.08
2017-12-12T00:27:48.054Z,25.90
2017-12-12T00:30:15.551Z,24.02
2017-12-12T00:32:42.970Z,21.85
2017-12-12T00:35:10.411Z,22.87
2017-12-12T00:37:38.638Z,21.70
2017-12-12T00:40:06.079Z,22.23
2017-12-12T00:42:33.650Z,21.92
2017-12-12T00:45:01.093Z,22.98
2017-12-12T00:47:28.526Z,20.52
2017-12-12T00:49:56.010Z,21.08
2017-12-12T00:52:23.457Z,23.65
2017-12-12T00:54:50.899Z,22.30
2017-12-12T00:57:18.382Z,20.70
2017-12-12T00:59:45.834Z,21.25
2017-12-12T01:02:13.274Z,19.00
2017-12-12T01:04:40.970Z,21.92
2017-12-12T01:07:08.394Z,20.58
2017-12-12T01:09:35.835Z,21.27
2017-12-12T01:12:03.323Z,20.98
2017-12-12T01:14:30.782Z,21.98
2017-12-12T01:16:58.238Z,21.87
2017-12-12T01:19:25.691Z,21.60
2017-12-12T01:21:53.249Z,21.20
2017-12-12T01:24:20.674Z,21.00
2017-12-12T01:26:48.114Z,23.45
2017-12-12T01:29:16.318Z,21.37
2017-12-12T01:31:43.751Z,18.30
2017-12-12T01:34:11.182Z,19.93
2017-12-12T01:36:39.387Z,20.33
2017-12-12T01:39:06.823Z,19.45
2017-12-12T01:41:35.050Z,19.70
2017-12-12T01:44:02.483Z,24.05
2017-12-12T01:46:29.967Z,21.33
2017-12-12T01:48:57.494Z,20.40
2017-12-12T01:51:24.970Z,18.10
2017-12-12T01:53:52.406Z,20.17
2017-12-12T01:56:19.887Z,20.05
2017-12-12T01:58:47.316Z,19.33
2017-12-12T02:01:14.903Z,19.48
2017-12-12T02:03:42.335Z,21.15
2017-12-12T02:06:09.781Z,22.52
2017-12-12T02:08:37.225Z,22.83
2017-12-12T02:11:05.429Z,20.00
2017-12-12T02:13:32.879Z,23.40
2017-12-12T02:16:00.323Z,22.98
2017-12-12T02:18:27.826Z,22.65
2017-12-12T02:20:55.262Z,23.83
2017-12-12T02:23:22.738Z,22.55
2017-12-12T02:25:50.179Z,25.50
2017-12-12T02:28:17.655Z,23.98
2017-12-12T02:30:45.304Z,26.00
2017-12-12T02:33:12.743Z,25.52
2017-12-12T02:35:40.210Z,25.70
2017-12-12T02:38:07.662Z,26.10
2017-12-12T02:40:35.097Z,26.80
2017-12-12T02:43:02.574Z,26.40
2017-12-12T02:45:30.014Z,27.77
2017-12-12T02:47:57.454Z,27.83
2017-12-12T02:50:24.879Z,28.17
2017-12-12T02:52:52.315Z,25.05
2017-12-12T02:55:19.861Z,24.37
2017-12-12T02:57:47.303Z,25.05
2017-12-12T03:00:14.726Z,25.58
2017-12-12T03:02:42.234Z,22.48
2017-12-12T03:05:09.695Z,21.98
2017-12-12T03:07:37.143Z,23.42
2017-12-12T03:10:04.607Z,22.52
2017-12-12T03:12:32.060Z,20.50
2017-12-12T03:14:59.490Z,19.45
2017-12-12T03:17:26.971Z,20.30
2017-12-12T03:19:54.427Z,20.98
2017-12-12T03:22:21.887Z,18.90
2017-12-12T03:24:49.342Z,18.20
2017-12-12T03:27:16.798Z,18.93
2017-12-12T03:29:44.250Z,17.40
2017-12-12T03:32:12.426Z,18.70
2017-12-12T03:34:39.883Z,19.70
2017-12-12T03:37:07.340Z,17.55
2017-12-12T03:39:34.781Z,18.12
2017-12-12T03:42:02.257Z,18.67
2017-12-12T03:44:29.788Z,19.10
2017-12-12T03:46:57.218Z,17.48
2017-12-12T03:49:24.646Z,18.40
2017-12-12T03:51:52.188Z,16.15
2017-12-12T03:54:19.631Z,17.60
2017-12-12T03:56:47.109Z,18.00
2017-12-12T03:59:14.538Z,20.70
2017-12-12T04:01:41.999Z,16.40
2017-12-12T04:04:09.454Z,18.52
2017-12-12T04:06:36.911Z,18.83
2017-12-12T04:09:04.342Z,18.67
2017-12-12T04:11:31.778Z,21.50
2017-12-12T04:13:59.215Z,17.08
2017-12-12T04:16:27.426Z,21.60
2017-12-12T04:18:54.862Z,17.70
2017-12-12T04:21:23.066Z,18.12
2017-12-12T04:23:50.627Z,21.95
2017-12-12T04:26:18.099Z,20.12
2017-12-12T04:28:45.559Z,18.40
2017-12-12T04:31:12.987Z,17.95
2017-12-12T04:33:40.428Z,18.00
2017-12-12T04:36:07.859Z,16.85
2017-12-12T04:38:36.098Z,16.75
2017-12-12T04:41:03.523Z,16.65
2017-12-12T04:43:30.958Z,17.10
2017-12-12T04:45:59.162Z,18.62
2017-12-12T04:48:26.645Z,17.85
2017-12-12T04:50:54.098Z,18.70
2017-12-12T04:53:21.552Z,17.23
2017-12-12T04:55:49.010Z,16.15
2017-12-12T04:58:16.467Z,17.08
2017-12-12T05:00:43.918Z,16.30
2017-12-12T05:03:11.387Z,16.98
2017-12-12T05:05:38.802Z,17.25
2017-12-12T05:08:06.250Z,16.90
2017-12-12T05:10:34.469Z,15.48
2017-12-12T05:13:01.907Z,17.73
2017-12-12T05:15:29.351Z,17.12
2017-12-12T05:17:56.826Z,18.77
2017-12-12T05:20:24.254Z,17.67
2017-12-12T05:22:51.738Z,18.50
2017-12-12T05:25:19.162Z,16.65
2017-12-12T05:27:46.650Z,17.52
2017-12-12T05:30:14.116Z,17.62
2017-12-12T05:32:41.547Z,18.60
2017-12-12T05:35:09.022Z,18.13
2017-12-12T05:37:36.454Z,17.23
2017-12-12T05:40:03.949Z,18.73
2017-12-12T05:42:31.375Z,18.30
2017-12-12T05:44:58.824Z,18.73
2017-12-12T05:47:26.316Z,19.12
2017-12-12T05:49:53.774Z,19.23
2017-12-12T05:52:21.231Z,18.92
2017-12-12T05:54:48.673Z,19.55
2017-12-12T05:57:16.118Z,19.70
2017-12-12T05:59:43.570Z,22.37
2017-12-12T06:02:10.992Z,22.48
2017-12-12T06:04:39.234Z,23.85
2017-12-12T06:07:06.690Z,23.02
2017-12-12T06:09:34.131Z,22.55
2017-12-12T06:12:01.585Z,23.98
2017-12-12T06:14:29.229Z,24.70
2017-12-12T06:16:56.806Z,25.25
2017-12-12T06:19:24.262Z,25.20
2017-12-12T06:21:51.697Z,24.13
2017-12-12T06:24:19.181Z,26.67
2017-12-12T06:26:46.711Z,24.90
2017-12-12T06:29:14.311Z,25.45
2017-12-12T06:31:46.693Z,25.65
2017-12-12T06:34:14.324Z,25.58
2017-12-12T06:36:41.758Z,24.87
2017-12-12T06:39:09.218Z,25.52
2017-12-12T06:41:36.698Z,24.80
2017-12-12T06:44:04.164Z,25.45
2017-12-12T06:46:31.687Z,26.23
2017-12-12T06:48:59.348Z,26.95
2017-12-12T06:51:26.861Z,26.15
2017-12-12T06:53:55.066Z,28.52
2017-12-12T06:56:22.511Z,30.05
2017-12-12T06:58:49.964Z,32.15
2017-12-12T07:01:18.178Z,30.12
2017-12-12T07:03:45.642Z,30.27
2017-12-12T07:06:13.102Z,31.90
2017-12-12T07:08:40.538Z,32.28
2017-12-12T07:11:08.030Z,31.75
2017-12-12T07:13:35.549Z,33.30
2017-12-12T07:16:03.019Z,32.45
2017-12-12T07:18:30.477Z,31.45
2017-12-12T07:20:57.922Z,30.65
2017-12-12T07:23:25.366Z,29.87
2017-12-12T07:25:52.816Z,32.60
2017-12-12T07:28:20.285Z,31.85
2017-12-12T07:30:47.710Z,32.72
2017-12-12T07:33:15.923Z,34.33
2017-12-12T07:35:43.579Z,32.58
2017-12-12T07:38:11.013Z,31.77
2017-12-12T07:40:38.445Z,29.15
2017-12-12T07:43:05.968Z,29.33
2017-12-12T07:45:33.399Z,31.23
2017-12-12T07:48:00.882Z,27.77
2017-12-12T07:50:28.341Z,29.50
2017-12-12T07:52:55.811Z,28.10
2017-12-12T07:55:23.250Z,26.23
2017-12-12T07:57:50.732Z,30.67
2017-12-12T08:00:18.187Z,26.65
2017-12-12T08:02:45.818Z,25.37
2017-12-12T08:05:13.280Z,25.40
2017-12-12T08:07:40.815Z,25.27
2017-12-12T08:10:08.295Z,25.37
2017-12-12T08:12:35.718Z,24.35
2017-12-12T08:15:03.166Z,23.23
2017-12-12T08:17:30.616Z,23.60
2017-12-12T08:19:58.229Z,24.80
2017-12-12T08:22:25.666Z,23.48
2017-12-12T08:24:53.165Z,24.27
2017-12-12T08:27:20.689Z,22.35
2017-12-12T08:29:48.135Z,20.40
2017-12-12T08:32:15.627Z,20.88
2017-12-12T08:34:43.067Z,20.90
2017-12-12T08:37:10.508Z,20.40
2017-12-12T08:39:37.950Z,21.20
2017-12-12T08:42:06.180Z,21.17
2017-12-12T08:44:33.618Z,20.80
2017-12-12T08:47:01.046Z,20.88
2017-12-12T08:49:28.538Z,21.50
2017-12-12T08:51:56.081Z,19.95
2017-12-12T08:54:23.518Z,21.15
2017-12-12T08:56:51.025Z,21.55
2017-12-12T08:59:18.525Z,19.67
2017-12-12T09:01:46.853Z,19.37
2017-12-12T09:04:14.293Z,19.62
2017-12-12T09:06:41.769Z,22.55
2017-12-12T09:09:09.189Z,18.62
2017-12-12T09:11:36.684Z,17.85
2017-12-12T09:14:04.107Z,17.20
2017-12-12T09:16:31.554Z,16.70
2017-12-12T09:18:59.026Z,16.33
2017-12-12T09:21:26.460Z,15.63
2017-12-12T09:23:53.993Z,15.90
2017-12-12T09:26:21.427Z,14.55
2017-12-12T09:28:48.882Z,15.88
2017-12-12T09:31:16.322Z,17.40
2017-12-12T09:33:43.798Z,15.25
2017-12-12T09:36:11.238Z,14.05
2017-12-12T09:38:38.702Z,14.48
2017-12-12T09:41:06.226Z,14.60
2017-12-12T09:43:33.662Z,14.82
2017-12-12T09:46:01.112Z,15.77
2017-12-12T09:48:29.352Z,16.00
2017-12-12T09:50:56.786Z,15.82
2017-12-12T09:53:24.403Z,16.15
2017-12-12T09:55:52.631Z,15.70
2017-12-12T09:58:20.105Z,15.75
2017-12-12T10:00:47.572Z,15.23
2017-12-12T10:03:14.998Z,15.40
2017-12-12T10:05:42.497Z,14.20
2017-12-12T10:08:10.722Z,14.35
2017-12-12T10:10:38.191Z,14.70
2017-12-12T10:13:05.757Z,15.00
2017-12-12T10:15:33.236Z,14.65
2017-12-12T10:18:00.783Z,15.95
2017-12-12T10:20:28.222Z,15.15
2017-12-12T10:22:55.664Z,17.33
2017-12-12T10:25:24.019Z,16.33
2017-12-12T10:27:52.226Z,16.12
2017-12-12T10:30:19.662Z,15.83
2017-12-12T10:32:48.366Z,15.93
2017-12-12T10:35:15.821Z,16.17
2017-12-12T10:37:43.263Z,15.70
2017-12-12T10:40:10.723Z,17.00
2017-12-12T10:42:38.176Z,15.65
2017-12-12T10:45:05.648Z,14.80
2017-12-12T10:47:33.076Z,15.98
2017-12-12T10:50:00.525Z,14.73
2017-12-12T10:52:29.842Z,14.63
2017-12-12T10:54:57.288Z,14.05
2017-12-12T10:57:25.675Z,12.90
2017-12-12T10:59:53.182Z,13.73
2017-12-12T11:02:20.720Z,14.65
2017-12-12T11:04:48.154Z,16.92
2017-12-12T11:07:15.582Z,13.77
2017-12-12T11:09:43.794Z,13.15
2017-12-12T11:12:11.241Z,13.85
2017-12-12T11:14:38.731Z,13.18
2017-12-12T11:17:06.185Z,13.55
2017-12-12T11:19:33.730Z,13.05
2017-12-12T11:22:01.166Z,13.00
2017-12-12T11:24:28.642Z,12.80
2017-12-12T11:26:56.070Z,13.93
2017-12-12T11:29:23.508Z,13.90
2017-12-12T11:31:51.745Z,13.38
2017-12-12T11:34:19.194Z,14.90
2017-12-12T11:36:46.624Z,16.30
2017-12-12T11:39:14.104Z,14.87
2017-12-12T11:41:41.538Z,15.90
2017-12-12T11:44:08.975Z,15.68
2017-12-12T11:46:36.471Z,15.60
2017-12-12T11:49:03.908Z,17.27
2017-12-12T11:51:31.349Z,16.43
2017-12-12T11:53:58.797Z,16.23
2017-12-12T11:56:26.242Z,17.62
2017-12-12T11:58:54.466Z,18.37
2017-12-12T12:01:21.908Z,16.77
2017-12-12T12:03:49.378Z,18.67
2017-12-12T12:06:16.866Z,19.60
2017-12-12T12:08:44.282Z,18.42
2017-12-12T12:11:11.725Z,17.90
2017-12-12T12:13:39.214Z,18.50
2017-12-12T12:16:06.651Z,17.17
2017-12-12T12:18:34.101Z,18.23
2017-12-12T12:21:01.713Z,18.30
2017-12-12T12:23:29.929Z,18.60
2017-12-12T12:25:57.487Z,17.98
2017-12-12T12:28:24.933Z,19.10
2017-12-12T12:30:52.370Z,18.37
2017-12-12T12:33:20.574Z,17.98
2017-12-12T12:35:48.143Z,17.70
2017-12-12T12:38:15.577Z,18.33
2017-12-12T12:40:43.007Z,18.65
2017-12-12T12:43:11.215Z,18.58
2017-12-12T12:45:38.679Z,18.50
2017-12-12T12:48:06.135Z,17.95
2017-12-12T12:50:33.567Z,18.20
2017-12-12T12:53:01.055Z,18.30
2017-12-12T12:55:28.531Z,18.35
2017-12-12T12:57:55.958Z,18.33
2017-12-12T13:00:23.408Z,18.08
2017-12-12T13:02:50.888Z,18.30
2017-12-12T13:05:18.323Z,19.10
2017-12-12T13:07:45.778Z,19.17
2017-12-12T13:10:14.213Z,17.92
2017-12-12T13:12:42.458Z,18.80
2017-12-12T13:15:09.907Z,19.55
2017-12-12T13:17:37.363Z,18.45
2017-12-12T13:20:04.796Z,19.40
2017-12-12T13:22:32.294Z,19.77
2017-12-12T13:24:59.731Z,18.70
2017-12-12T13:27:27.191Z,20.17
2017-12-12T13:29:54.662Z,20.62
2017-12-12T13:32:22.103Z,20.13
2017-12-12T13:34:49.558Z,20.17
2017-12-12T13:37:17.101Z,20.53
2017-12-12T13:39:44.584Z,20.65
2017-12-12T13:42:12.030Z,22.00
2017-12-12T13:44:39.580Z,20.75
2017-12-12T13:47:07.038Z,21.00
2017-12-12T13:49:34.490Z,22.30
2017-12-12T13:52:02.054Z,21.40
2017-12-12T13:54:29.598Z,19.92
2017-12-12T13:56:57.065Z,19.80
2017-12-12T13:59:24.486Z,17.73
2017-12-12T14:01:52.022Z,20.45
2017-12-12T14:04:20.243Z,17.95
2017-12-12T14:06:47.674Z,16.98
2017-12-12T14:09:15.929Z,16.30
2017-12-12T14:11:43.385Z,17.42
2017-12-12T14:14:10.840Z,15.65
2017-12-12T14:16:39.088Z,15.70
2017-12-12T14:19:06.546Z,18.33
2017-12-12T14:21:34.014Z,15.85
2017-12-12T14:24:01.503Z,15.20
2017-12-12T14:26:29.739Z,17.92
2017-12-12T14:28:57.221Z,14.32
2017-12-12T14:31:25.436Z,16.30
2017-12-12T14:33:52.878Z,18.58
2017-12-12T14:36:20.367Z,15.63
2017-12-12T14:38:47.799Z,17.45
2017-12-12T14:41:15.234Z,15.32
2017-12-12T14:43:42.694Z,16.37
2017-12-12T14:46:10.892Z,15.32
2017-12-12T14:48:38.322Z,14.75
2017-12-12T14:51:05.815Z,15.13
2017-12-12T14:53:33.360Z,14.83
2017-12-12T14:56:00.783Z,14.33
2017-12-12T14:58:28.243Z,13.62
2017-12-12T15:00:56.446Z,13.60
2017-12-12T15:03:23.878Z,13.62
2017-12-12T15:05:51.322Z,13.43
2017-12-12T15:08:18.917Z,14.27
2017-12-12T15:10:46.391Z,11.98
2017-12-12T15:13:13.822Z,14.70
2017-12-12T15:15:41.386Z,15.33
2017-12-12T15:18:08.874Z,14.43
2017-12-12T15:20:36.322Z,13.80
2017-12-12T15:23:03.774Z,11.65
2017-12-12T15:25:31.229Z,12.65
2017-12-12T15:27:58.775Z,12.35
2017-12-12T15:30:26.263Z,14.50
2017-12-12T15:32:53.707Z,13.70
2017-12-12T15:35:21.166Z,12.50
2017-12-12T15:37:48.611Z,12.02
2017-12-12T15:40:16.062Z,14.27
2017-12-12T15:42:43.538Z,13.65
2017-12-12T15:45:10.975Z,13.60
2017-12-12T15:47:38.419Z,14.77
2017-12-12T15:50:05.898Z,12.50
2017-12-12T15:52:33.366Z,12.07
2017-12-12T15:55:00.916Z,13.02
2017-12-12T15:57:29.167Z,13.20
2017-12-12T15:59:56.608Z,13.15
2017-12-12T16:02:24.100Z,13.00
2017-12-12T16:04:52.202Z,13.77
2017-12-12T16:07:19.754Z,14.97
2017-12-12T16:09:47.190Z,14.85
2017-12-12T16:12:14.627Z,14.32
2017-12-12T16:14:42.099Z,15.05
2017-12-12T16:17:09.546Z,15.40
2017-12-12T16:19:36.988Z,16.27
2017-12-12T16:22:04.444Z,17.20
2017-12-12T16:24:31.866Z,16.35
2017-12-12T16:27:00.076Z,16.77
2017-12-12T16:29:27.844Z,17.10
2017-12-12T16:31:55.299Z,16.10
2017-12-12T16:34:22.724Z,17.25
2017-12-12T16:36:50.918Z,16.98
2017-12-12T16:39:18.438Z,16.53
2017-12-12T16:41:47.055Z,16.00
2017-12-12T16:44:14.555Z,17.45
2017-12-12T16:46:41.999Z,19.77
2017-12-12T16:49:09.463Z,17.87
2017-12-12T16:51:36.926Z,16.80
2017-12-12T16:54:04.375Z,17.40
2017-12-12T16:56:31.820Z,16.83
2017-12-12T16:58:59.389Z,18.25
2017-12-12T17:01:26.845Z,16.70
2017-12-12T17:03:54.304Z,16.52
2017-12-12T17:06:21.752Z,17.33
2017-12-12T17:08:49.240Z,16.15
2017-12-12T17:11:16.668Z,16.40
2017-12-12T17:13:44.125Z,16.85
2017-12-12T17:16:11.583Z,17.52
2017-12-12T17:18:39.058Z,16.42
2017-12-12T17:21:06.486Z,19.40
2017-12-12T17:23:33.942Z,17.85
2017-12-12T17:26:01.510Z,18.08
2017-12-12T17:28:28.955Z,18.45
2017-12-12T17:30:56.437Z,16.52
2017-12-12T17:33:23.864Z,18.48
2017-12-12T17:35:51.335Z,17.17
2017-12-12T17:38:18.782Z,17.92
2017-12-12T17:40:46.219Z,18.83
2017-12-12T17:43:13.779Z,17.60
2017-12-12T17:45:41.287Z,17.90
2017-12-12T17:48:08.752Z,18.45
2017-12-12T17:50:36.199Z,18.70
2017-12-12T17:53:04.063Z,19.05
2017-12-12T17:55:31.495Z,18.15
2017-12-12T17:57:58.926Z,18.35
2017-12-12T18:00:26.491Z,18.67
2017-12-12T18:02:53.930Z,19.70
2017-12-12T18:05:21.426Z,19.27
2017-12-12T18:07:48.880Z,18.67
2017-12-12T18:10:16.335Z,19.95
2017-12-12T18:12:43.800Z,19.05
2017-12-12T18:15:11.235Z,19.73
2017-12-12T18:17:38.706Z,21.10
2017-12-12T18:20:06.162Z,21.35
2017-12-12T18:22:33.643Z,20.92
2017-12-12T18:25:01.088Z,21.40
2017-12-12T18:27:28.570Z,21.07
2017-12-12T18:29:55.994Z,21.87
2017-12-12T18:32:23.433Z,23.83
2017-12-12T18:34:51.678Z,21.30
2017-12-12T18:37:19.158Z,23.30
2017-12-12T18:39:46.611Z,24.33
2017-12-12T18:42:14.146Z,23.17
2017-12-12T18:44:41.580Z,27.97
2017-12-12T18:47:09.061Z,27.60
2017-12-12T18:49:36.490Z,26.20
2017-12-12T18:52:03.926Z,24.83
2017-12-12T18:54:31.374Z,26.52
2017-12-12T18:56:59.495Z,26.42
2017-12-12T18:59:26.925Z,26.23
2017-12-12T19:01:55.028Z,26.65
2017-12-12T19:04:22.463Z,26.33
2017-12-12T19:06:49.923Z,25.17
2017-12-12T19:09:17.354Z,25.62
2017-12-12T19:11:44.785Z,26.33
2017-12-12T19:14:12.235Z,24.20
2017-12-12T19:16:39.667Z,23.95
2017-12-12T19:19:07.293Z,24.95
2017-12-12T19:21:34.706Z,26.67
2017-12-12T19:24:02.915Z,25.35
2017-12-12T19:26:30.338Z,23.25
2017-12-12T19:28:58.582Z,25.02
2017-12-12T19:31:26.013Z,24.42
2017-12-12T19:33:53.463Z,25.33
2017-12-12T19:36:20.886Z,25.88
2017-12-12T19:38:49.094Z,25.90
2017-12-12T19:41:16.534Z,29.80
2017-12-12T19:43:43.990Z,29.80
2017-12-12T19:46:11.499Z,31.05
2017-12-12T19:48:38.938Z,29.50
2017-12-12T19:51:06.378Z,32.58
2017-12-12T19:53:33.844Z,32.78
2017-12-12T19:56:01.284Z,33.85
2017-12-12T19:58:29.367Z,29.50
2017-12-12T20:00:56.821Z,31.37
2017-12-12T20:03:24.280Z,33.13
2017-12-12T20:05:51.712Z,31.23
2017-12-12T20:08:19.155Z,30.10
2017-12-12T20:10:46.661Z,31.20
2017-12-12T20:13:14.091Z,30.75
2017-12-12T20:15:41.550Z,30.85
2017-12-12T20:18:08.988Z,31.80
2017-12-12T20:20:36.458Z,33.97
2017-12-12T20:23:03.890Z,34.97
2017-12-12T20:25:32.091Z,30.62
2017-12-12T20:27:59.526Z,30.70
2017-12-12T20:30:27.902Z,31.95
2017-12-12T20:32:55.417Z,33.53
2017-12-12T20:35:22.854Z,37.17
2017-12-12T20:37:50.302Z,31.95
2017-12-12T20:40:17.743Z,34.38
2017-12-12T20:42:45.243Z,35.58
2017-12-12T20:45:12.767Z,32.95
2017-12-12T20:47:40.244Z,34.10
2017-12-12T20:50:07.677Z,33.78
2017-12-12T20:52:35.150Z,37.97
2017-12-12T20:55:02.602Z,38.10
2017-12-12T20:57:30.062Z,36.92
2017-12-12T20:59:57.538Z,36.75
2017-12-12T21:02:24.986Z,39.15
2017-12-12T21:04:52.442Z,34.90
2017-12-12T21:07:25.616Z,36.55
2017-12-12T21:09:53.067Z,34.97
2017-12-12T21:12:20.518Z,35.92
2017-12-12T21:14:48.094Z,36.88
2017-12-12T21:17:15.538Z,38.42
2017-12-12T21:19:42.975Z,38.78
2017-12-12T21:22:10.474Z,37.92
2017-12-12T21:24:37.926Z,42.03
2017-12-12T21:27:05.374Z,40.03
2017-12-12T21:29:32.834Z,41.67
2017-12-12T21:32:00.294Z,41.10
2017-12-12T21:34:27.830Z,45.60
2017-12-12T21:36:55.310Z,40.72
2017-12-12T21:39:22.741Z,42.92
2017-12-12T21:41:50.222Z,43.13
2017-12-12T21:44:17.779Z,43.00
2017-12-12T21:46:45.238Z,42.30
2017-12-12T21:49:12.670Z,40.73
2017-12-12T21:51:40.269Z,43.00
2017-12-12T21:54:09.243Z,41.75
2017-12-12T21:56:36.684Z,40.97
2017-12-12T21:59:04.133Z,40.90
2017-12-12T22:01:31.615Z,42.55
2017-12-12T22:03:59.148Z,42.10
2017-12-12T22:06:26.623Z,43.90
2017-12-12T22:08:54.059Z,40.67
2017-12-12T22:11:21.535Z,42.53
2017-12-12T22:13:48.972Z,41.13
2017-12-12T22:16:16.407Z,41.43
2017-12-12T22:18:44.594Z,39.70
2017-12-12T22:21:12.076Z,38.00
2017-12-12T22:23:39.523Z,39.22
2017-12-12T22:26:06.990Z,37.55
2017-12-12T22:28:34.447Z,38.03
2017-12-12T22:31:01.883Z,38.15
2017-12-12T22:33:29.315Z,35.55
2017-12-12T22:35:56.746Z,36.30
2017-12-12T22:38:24.196Z,36.75
2017-12-12T22:40:51.628Z,36.25
2017-12-12T22:43:19.074Z,36.00
2017-12-12T22:45:46.507Z,34.13
2017-12-12T22:48:13.951Z,34.58
2017-12-12T22:50:42.138Z,34.05
2017-12-12T22:53:09.589Z,33.85
2017-12-12T22:55:37.083Z,34.38
2017-12-12T22:58:04.506Z,32.22
2017-12-12T23:00:31.954Z,34.67
2017-12-12T23:02:59.442Z,32.53
2017-12-12T23:05:27.014Z,33.05
2017-12-12T23:07:54.475Z,31.98
2017-12-12T23:10:21.901Z,33.88
2017-12-12T23:12:49.340Z,32.78
2017-12-12T23:15:16.827Z,33.92
2017-12-12T23:17:44.278Z,32.00
2017-12-12T23:20:11.711Z,30.98
2017-12-12T23:22:39.198Z,31.42
2017-12-12T23:25:06.746Z,31.52
2017-12-12T23:27:34.181Z,33.28
2017-12-12T23:30:01.615Z,31.70
2017-12-12T23:32:29.050Z,32.95
2017-12-12T23:34:56.582Z,30.10
2017-12-12T23:37:24.019Z,30.17
2017-12-12T23:39:51.491Z,30.88
2017-12-12T23:42:18.924Z,31.52
2017-12-12T23:44:46.410Z,31.27
2017-12-12T23:47:13.865Z,31.65
2017-12-12T23:49:41.423Z,33.90
2017-12-12T23:52:08.859Z,30.75
2017-12-12T23:54:36.305Z,30.92
2017-12-12T23:57:03.722Z,30.65
2017-12-12T23:59:31.251Z,29.77
